Time;durP1;ratioP1;P1;durP2;ratioP2;P2;SDS_P1;SDS_P2;PMS_P1;PMS_P2;Temp;Humidity;BMP_temperature;BMP_pressure;BME280_temperature;BME280_humidity;BME280_pressure;Samples;Min_cycle;Max_cycle;Signal;HPM_P1;HPM_P2
2021/03/26 00:02:16;;;;;;;38.20;26.25;;;12.00;99.90;;;;;;1896831;74;21214;-70
2021/03/26 00:04:44;;;;;;;37.63;26.52;;;11.90;99.90;;;;;;1862345;75;21162;-70
2021/03/26 00:07:11;;;;;;;38.15;26.77;;;11.90;99.90;;;;;;1946114;73;21102;-69
2021/03/26 00:09:39;;;;;;;39.15;26.42;;;11.90;99.90;;;;;;1861047;76;21109;-69
2021/03/26 00:12:14;;;;;;;41.92;29.00;;;11.80;99.90;;;;;;1939071;73;21112;-69
2021/03/26 00:14:43;;;;;;;37.78;27.50;;;11.90;99.90;;;;;;1865612;75;21085;-70
2021/03/26 00:17:10;;;;;;;39.65;27.65;;;11.90;99.90;;;;;;1937144;72;21170;-70
2021/03/26 00:19:38;;;;;;;41.35;28.87;;;11.90;99.90;;;;;;1937573;72;21088;-69
2021/03/26 00:22:05;;;;;;;40.40;28.60;;;11.70;99.90;;;;;;1924529;72;21574;-70
2021/03/26 00:24:33;;;;;;;38.67;28.42;;;11.60;99.90;;;;;;1938446;72;21100;-69
2021/03/26 00:27:00;;;;;;;42.48;29.60;;;11.60;99.90;;;;;;1859782;76;21547;-69
2021/03/26 00:29:28;;;;;;;39.78;28.47;;;11.60;99.90;;;;;;1852381;75;21125;-70
2021/03/26 00:31:55;;;;;;;43.40;29.65;;;11.70;99.90;;;;;;1891573;74;21054;-70
2021/03/26 00:34:23;;;;;;;42.93;29.25;;;11.70;99.90;;;;;;1939545;73;21520;-70
2021/03/26 00:36:50;;;;;;;43.98;30.68;;;11.70;99.90;;;;;;1936681;72;21059;-70
2021/03/26 00:39:18;;;;;;;39.65;29.07;;;11.70;99.90;;;;;;1936022;72;21038;-70
2021/03/26 00:41:45;;;;;;;43.55;31.30;;;11.60;99.90;;;;;;1939476;72;21351;-70
2021/03/26 00:44:13;;;;;;;46.05;30.15;;;11.50;99.90;;;;;;1928574;72;21550;-69
2021/03/26 00:46:42;;;;;;;41.88;30.92;;;11.50;99.90;;;;;;1940334;72;21196;-69
2021/03/26 00:49:10;;;;;;;43.23;30.48;;;11.60;99.90;;;;;;1936952;73;21542;-69
2021/03/26 00:51:38;;;;;;;41.30;29.90;;;11.60;99.90;;;;;;1944058;73;21555;-69
2021/03/26 00:54:07;;;;;;;42.53;30.95;;;11.60;99.90;;;;;;1945374;73;21166;-69
2021/03/26 00:56:35;;;;;;;46.70;30.72;;;11.60;99.90;;;;;;1931578;72;22208;-69
2021/03/26 00:59:04;;;;;;;45.50;32.50;;;11.50;99.90;;;;;;1935222;72;21072;-70
2021/03/26 01:01:31;;;;;;;42.93;31.20;;;11.40;99.90;;;;;;1938564;72;21551;-70
2021/03/26 01:03:59;;;;;;;46.30;32.28;;;11.40;99.90;;;;;;1938053;72;21221;-69
2021/03/26 01:06:26;;;;;;;43.33;30.80;;;11.40;99.90;;;;;;1933320;72;21112;-70
2021/03/26 01:08:54;;;;;;;47.65;33.70;;;11.40;99.90;;;;;;1938205;72;21530;-69
2021/03/26 01:11:24;;;;;;;43.83;33.23;;;11.40;99.90;;;;;;1935459;72;21033;-69
2021/03/26 01:13:53;;;;;;;46.00;32.83;;;11.40;99.90;;;;;;1933446;72;21316;-70
2021/03/26 01:16:21;;;;;;;55.23;33.88;;;11.30;99.90;;;;;;1892094;74;21194;-69
2021/03/26 01:18:49;;;;;;;50.08;33.95;;;11.20;99.90;;;;;;1887978;74;21089;-69
2021/03/26 01:21:22;;;;;;;50.58;35.35;;;11.20;99.90;;;;;;1886000;74;21128;-70
2021/03/26 01:23:50;;;;;;;48.15;34.63;;;11.20;99.90;;;;;;1888037;74;21448;-70
2021/03/26 01:26:17;;;;;;;47.43;33.67;;;11.20;99.90;;;;;;1888112;74;21643;-69
2021/03/26 01:28:45;;;;;;;51.20;35.40;;;11.20;99.90;;;;;;1887731;74;21056;-69
2021/03/26 01:31:14;;;;;;;46.20;34.15;;;11.20;99.90;;;;;;1859189;76;21032;-70
2021/03/26 01:33:41;;;;;;;49.27;35.60;;;11.20;99.90;;;;;;1934700;72;21331;-69
2021/03/26 01:36:09;;;;;;;47.38;35.13;;;11.30;99.90;;;;;;1938229;72;21567;-69
2021/03/26 01:38:37;;;;;;;50.60;36.70;;;11.30;99.90;;;;;;1858345;76;21557;-69
2021/03/26 01:41:08;;;;;;;48.98;35.65;;;11.30;99.90;;;;;;1930485;72;21072;-70
2021/03/26 01:43:38;;;;;;;54.38;36.60;;;11.20;99.90;;;;;;1937488;72;21111;-70
2021/03/26 01:46:08;;;;;;;49.90;34.27;;;11.10;99.90;;;;;;1935693;72;21691;-70
2021/03/26 01:48:44;;;;;;;47.38;35.85;;;11.20;99.90;;;;;;1927473;72;21157;-70
2021/03/26 01:51:18;;;;;;;52.62;37.25;;;11.20;99.90;;;;;;1930408;72;21022;-70
2021/03/26 01:53:46;;;;;;;55.92;37.85;;;11.10;99.90;;;;;;1931309;72;21170;-71
2021/03/26 01:56:13;;;;;;;54.15;37.83;;;11.10;99.90;;;;;;1933889;72;21706;-70
2021/03/26 01:58:41;;;;;;;59.88;40.10;;;11.10;99.90;;;;;;1939749;72;21081;-70
2021/03/26 02:01:12;;;;;;;56.23;38.20;;;11.10;99.90;;;;;;1939615;72;21061;-70
2021/03/26 02:03:45;;;;;;;52.23;38.38;;;11.10;99.90;;;;;;1935096;72;21103;-69
2021/03/26 02:06:19;;;;;;;53.75;39.30;;;11.00;99.90;;;;;;1930306;72;21765;-69
2021/03/26 02:08:47;;;;;;;51.75;38.98;;;11.00;99.90;;;;;;1933333;72;20994;-70
2021/03/26 02:11:30;;;;;;;57.08;38.83;;;11.00;99.90;;;;;;1896591;74;21203;-70
2021/03/26 02:14:00;;;;;;;55.45;39.50;;;10.80;99.90;;;;;;1888527;74;21167;-70
2021/03/26 02:16:28;;;;;;;55.43;40.78;;;10.90;99.90;;;;;;1868736;75;21979;-70
2021/03/26 02:18:55;;;;;;;59.85;41.30;;;10.90;99.90;;;;;;1890499;74;21101;-69
2021/03/26 02:21:26;;;;;;;55.20;41.23;;;10.90;99.90;;;;;;1903013;74;21062;-70
2021/03/26 02:23:55;;;;;;;60.35;41.68;;;10.80;99.90;;;;;;1896055;74;21058;-69
2021/03/26 02:26:25;;;;;;;54.98;40.12;;;10.70;99.90;;;;;;1855567;75;21621;-69
2021/03/26 02:28:54;;;;;;;58.55;40.90;;;10.80;99.90;;;;;;1929248;72;21466;-69
2021/03/26 02:31:22;;;;;;;63.23;42.38;;;10.80;99.90;;;;;;1898058;74;21049;-69
2021/03/26 02:33:51;;;;;;;57.83;41.25;;;10.90;99.90;;;;;;1859367;75;21225;-69
2021/03/26 02:36:21;;;;;;;62.40;42.03;;;11.00;99.90;;;;;;1933552;72;21218;-69
2021/03/26 02:38:52;;;;;;;61.05;42.40;;;10.90;99.90;;;;;;1933710;73;21097;-69
2021/03/26 02:41:25;;;;;;;55.28;41.40;;;10.80;99.90;;;;;;1900369;74;21137;-70
2021/03/26 02:44:02;;;;;;;58.38;41.85;;;10.90;99.90;;;;;;1889996;74;21186;-70
2021/03/26 02:46:41;;;;;;;57.17;41.42;;;10.80;99.90;;;;;;1862342;75;21153;-70
2021/03/26 02:49:15;;;;;;;59.53;41.75;;;10.70;99.90;;;;;;1898827;74;21221;-70
2021/03/26 02:51:46;;;;;;;59.38;41.83;;;10.80;99.90;;;;;;1887531;74;21146;-69
2021/03/26 02:54:31;;;;;;;62.25;42.35;;;10.80;99.90;;;;;;1893416;74;21097;-69
2021/03/26 02:57:02;;;;;;;60.92;42.40;;;10.80;99.90;;;;;;1929975;72;21567;-70
2021/03/26 02:59:47;;;;;;;58.78;43.78;;;10.90;99.90;;;;;;1938495;73;21613;-70
2021/03/26 03:02:17;;;;;;;60.23;43.17;;;10.90;99.90;;;;;;1935922;73;21628;-70
2021/03/26 03:04:48;;;;;;;60.40;42.38;;;11.00;99.90;;;;;;1931278;72;21245;-71
2021/03/26 03:07:21;;;;;;;61.60;42.75;;;11.00;99.90;;;;;;1860372;75;21173;-70
2021/03/26 03:09:51;;;;;;;60.40;42.60;;;11.00;99.90;;;;;;1934190;72;21136;-71
2021/03/26 03:12:28;;;;;;;62.03;42.60;;;10.90;99.90;;;;;;1933954;72;21109;-70
2021/03/26 03:14:58;;;;;;;61.33;44.40;;;10.90;99.90;;;;;;1927615;72;21128;-70
2021/03/26 03:17:32;;;;;;;63.05;43.83;;;10.90;99.90;;;;;;1934564;72;21132;-70
2021/03/26 03:20:20;;;;;;;61.28;42.60;;;11.00;99.90;;;;;;1928754;72;21637;-70
2021/03/26 03:22:53;;;;;;;58.20;42.48;;;10.90;99.90;;;;;;1933930;72;21570;-70
2021/03/26 03:25:24;;;;;;;57.65;41.55;;;10.80;99.90;;;;;;1933762;72;21654;-70
2021/03/26 03:27:57;;;;;;;56.73;42.03;;;10.80;99.90;;;;;;1927210;72;21159;-70
2021/03/26 03:30:43;;;;;;;61.98;42.70;;;10.80;99.90;;;;;;1932501;72;21132;-70
2021/03/26 03:33:25;;;;;;;57.60;42.03;;;10.90;99.90;;;;;;1931812;72;21073;-70
2021/03/26 03:36:07;;;;;;;61.70;43.23;;;10.80;99.90;;;;;;1930750;72;21565;-70
2021/03/26 03:39:04;;;;;;;66.45;43.42;;;10.80;99.90;;;;;;1932302;72;21092;-70
2021/03/26 03:41:35;;;;;;;59.83;41.65;;;10.80;99.90;;;;;;1861307;75;21144;-70
2021/03/26 03:44:22;;;;;;;56.15;41.08;;;10.70;99.90;;;;;;1898854;74;21132;-70
2021/03/26 03:46:55;;;;;;;56.00;40.83;;;10.80;99.90;;;;;;1884482;74;21200;-70
2021/03/26 03:49:41;;;;;;;64.35;42.95;;;10.70;99.90;;;;;;1891794;74;21128;-70
2021/03/26 03:52:23;;;;;;;62.45;42.13;;;10.80;99.90;;;;;;1826616;75;21041;-70
2021/03/26 03:54:56;;;;;;;60.33;41.75;;;10.80;99.90;;;;;;1884931;74;21076;-70
2021/03/26 03:57:30;;;;;;;54.58;39.90;;;10.70;99.90;;;;;;1885734;74;21115;-70
2021/03/26 04:00:00;;;;;;;57.50;41.20;;;10.70;99.90;;;;;;1852571;75;21057;-70
2021/03/26 04:03:00;;;;;;;59.03;41.73;;;10.70;99.90;;;;;;1858602;75;21046;-70
2021/03/26 04:05:36;;;;;;;57.05;41.33;;;10.80;99.90;;;;;;1855177;75;21202;-70
2021/03/26 04:08:12;;;;;;;60.50;42.58;;;10.80;99.90;;;;;;1928786;72;21448;-70
2021/03/26 04:10:43;;;;;;;58.85;40.95;;;10.80;99.90;;;;;;1938685;72;21143;-70
2021/03/26 04:13:13;;;;;;;62.05;43.33;;;10.80;99.90;;;;;;1939541;72;21132;-70
2021/03/26 04:15:47;;;;;;;60.73;42.48;;;10.70;99.90;;;;;;1932818;70;21720;-68
2021/03/26 04:18:23;;;;;;;58.45;42.23;;;10.70;99.90;;;;;;1898861;74;21111;-69
2021/03/26 04:20:59;;;;;;;52.78;39.27;;;10.70;99.90;;;;;;1855656;76;21047;-68
2021/03/26 04:23:45;;;;;;;55.88;40.98;;;10.70;99.90;;;;;;1854786;76;21125;-69
2021/03/26 04:26:24;;;;;;;58.80;41.65;;;10.70;99.90;;;;;;1868449;75;21078;-70
2021/03/26 04:29:18;;;;;;;56.88;41.13;;;10.70;99.90;;;;;;1890135;75;21078;-69
2021/03/26 04:32:09;;;;;;;57.90;41.77;;;10.60;99.90;;;;;;1865876;75;21198;-69
2021/03/26 04:34:42;;;;;;;60.20;39.70;;;10.60;99.90;;;;;;1888479;75;21617;-70
2021/03/26 04:37:40;;;;;;;57.13;41.40;;;10.50;99.90;;;;;;1891712;75;21163;-68
2021/03/26 04:40:17;;;;;;;61.88;42.10;;;10.50;99.90;;;;;;1893981;75;21548;-69
2021/03/26 04:42:47;;;;;;;56.37;40.50;;;10.40;99.90;;;;;;1889019;74;21162;-69
2021/03/26 04:45:30;;;;;;;59.50;42.00;;;10.40;99.90;;;;;;1892166;75;21669;-69
2021/03/26 04:47:58;;;;;;;;;;;10.40;99.90;;;;;;1892778;74;21292;-68
2021/03/26 04:50:31;;;;;;;54.73;40.00;;;10.40;99.90;;;;;;1891320;74;20264;-69
2021/03/26 04:53:05;;;;;;;58.85;42.60;;;10.50;99.90;;;;;;1890503;75;21473;-70
2021/03/26 04:55:36;;;;;;;55.60;41.60;;;10.50;99.90;;;;;;1884065;75;21109;-69
2021/03/26 04:58:07;;;;;;;58.90;43.28;;;10.40;99.90;;;;;;1888933;75;21144;-68
2021/03/26 05:00:43;;;;;;;58.87;42.70;;;10.40;99.90;;;;;;1892194;75;21085;-68
2021/03/26 05:03:22;;;;;;;58.28;41.90;;;10.50;99.90;;;;;;1891818;75;21093;-68
2021/03/26 05:05:56;;;;;;;60.98;41.58;;;10.40;99.90;;;;;;1891605;75;21053;-68
2021/03/26 05:08:26;;;;;;;54.42;41.53;;;10.40;99.90;;;;;;1888690;75;21106;-68
2021/03/26 05:10:55;;;;;;;57.03;41.40;;;10.40;99.90;;;;;;1892177;75;21133;-68
2021/03/26 05:13:32;;;;;;;60.78;42.13;;;10.40;99.90;;;;;;1893330;75;21462;-68
2021/03/26 05:16:05;;;;;;;96.42;52.08;;;10.40;99.90;;;;;;1891283;75;21194;-68
2021/03/26 05:18:48;;;;;;;78.70;51.53;;;10.40;99.90;;;;;;1891024;75;21567;-69
2021/03/26 05:21:24;;;;;;;66.53;45.85;;;10.30;99.90;;;;;;1890430;75;21159;-68
2021/03/26 05:23:54;;;;;;;60.70;44.70;;;10.40;99.90;;;;;;1888742;75;21105;-71
2021/03/26 05:26:22;;;;;;;59.67;43.65;;;10.50;99.90;;;;;;1890254;75;21245;-70
2021/03/26 05:28:50;;;;;;;57.93;42.40;;;10.50;99.90;;;;;;1892931;75;21074;-70
2021/03/26 05:31:35;;;;;;;55.33;41.23;;;10.40;99.90;;;;;;1894232;74;21097;-69
2021/03/26 05:34:09;;;;;;;59.60;43.20;;;10.40;99.90;;;;;;1892755;75;21089;-68
2021/03/26 05:36:42;;;;;;;56.00;42.23;;;10.30;99.90;;;;;;1887673;75;21113;-68
2021/03/26 05:39:13;;;;;;;61.70;44.85;;;10.30;99.90;;;;;;1888294;75;21527;-68
2021/03/26 05:41:59;;;;;;;59.45;43.50;;;10.30;99.90;;;;;;1890458;75;21105;-71
2021/03/26 05:44:35;;;;;;;61.30;42.98;;;10.30;99.90;;;;;;1928432;72;21145;-69
2021/03/26 05:47:11;;;;;;;59.18;43.00;;;10.40;99.90;;;;;;1828164;76;21101;-67
2021/03/26 05:49:45;;;;;;;63.20;43.90;;;10.40;99.90;;;;;;1935079;72;21093;-70
2021/03/26 05:52:39;;;;;;;62.05;43.55;;;10.40;99.90;;;;;;1887349;75;21094;-69
2021/03/26 05:55:10;;;;;;;61.90;43.95;;;10.30;99.90;;;;;;1856245;75;21120;-67
2021/03/26 05:57:43;;;;;;;61.23;42.53;;;10.10;99.90;;;;;;1875981;75;21226;-69
2021/03/26 06:00:38;;;;;;;61.73;43.80;;;10.10;99.90;;;;;;1869274;75;21125;-68
2021/03/26 06:03:27;;;;;;;64.80;44.88;;;10.20;99.90;;;;;;1939332;72;21273;-70
2021/03/26 06:06:23;;;;;;;70.12;46.02;;;10.30;99.90;;;;;;1891994;75;21136;-68
2021/03/26 06:09:03;;;;;;;66.92;44.88;;;10.30;99.90;;;;;;1868258;75;21132;-69
2021/03/26 06:11:42;;;;;;;63.68;45.25;;;10.30;99.90;;;;;;1890117;75;21190;-69
2021/03/26 06:14:34;;;;;;;61.48;41.77;;;10.30;99.90;;;;;;1885866;75;21113;-68
2021/03/26 06:17:24;;;;;;;62.20;43.28;;;10.30;99.90;;;;;;1890774;75;21324;-69
2021/03/26 06:20:17;;;;;;;62.25;44.15;;;10.40;99.90;;;;;;1933747;72;21622;-67
2021/03/26 06:23:21;;;;;;;61.88;44.63;;;10.50;99.90;;;;;;1896317;72;21108;-71
2021/03/26 06:26:12;;;;;;;63.20;44.70;;;10.50;99.90;;;;;;1858330;75;21273;-69
2021/03/26 06:29:01;;;;;;;63.40;43.75;;;10.40;99.90;;;;;;1929490;72;21107;-68
2021/03/26 06:31:59;;;;;;;60.00;44.05;;;10.40;99.90;;;;;;1938153;73;21037;-69
2021/03/26 06:34:49;;;;;;;64.45;44.80;;;10.40;99.90;;;;;;1892720;73;21073;-68
2021/03/26 06:37:35;;;;;;;61.42;43.90;;;10.30;99.90;;;;;;1936323;72;21065;-68
2021/03/26 06:40:18;;;;;;;62.78;43.98;;;10.40;99.90;;;;;;1932804;73;21174;-68
2021/03/26 06:42:46;;;;;;;;;;;10.40;99.90;;;;;;1931260;73;21116;-68
2021/03/26 06:45:31;;;;;;;65.17;44.40;;;10.60;99.90;;;;;;1940274;73;20214;-68
2021/03/26 06:48:20;;;;;;;69.80;44.67;;;10.70;99.90;;;;;;1936445;73;21124;-67
2021/03/26 06:51:23;;;;;;;61.30;43.95;;;10.80;99.90;;;;;;1930014;72;21201;-69
2021/03/26 06:53:53;;;;;;;68.80;44.73;;;10.80;99.90;;;;;;1939541;72;21090;-67
2021/03/26 06:56:26;;;;;;;59.67;43.40;;;10.70;99.90;;;;;;1930947;72;21194;-71
2021/03/26 06:59:15;;;;;;;59.08;42.65;;;10.80;99.90;;;;;;1934623;73;21189;-70
2021/03/26 07:01:45;;;;;;;60.90;44.50;;;10.90;99.90;;;;;;1933563;73;21084;-70
2021/03/26 07:04:28;;;;;;;59.77;43.70;;;10.90;99.90;;;;;;1938514;73;21147;-71
2021/03/26 07:07:07;;;;;;;56.33;41.42;;;11.00;99.90;;;;;;1844912;75;21427;-70
2021/03/26 07:09:46;;;;;;;56.45;41.50;;;11.10;99.90;;;;;;1852532;76;21097;-69
2021/03/26 07:12:29;;;;;;;58.75;42.33;;;11.20;99.90;;;;;;1864757;75;21162;-68
2021/03/26 07:15:09;;;;;;;56.13;40.83;;;11.20;99.90;;;;;;1933195;72;21193;-68
2021/03/26 07:18:00;;;;;;;58.30;43.30;;;11.20;99.90;;;;;;1937271;73;21117;-68
2021/03/26 07:20:31;;;;;;;61.00;42.13;;;11.30;99.90;;;;;;1892023;74;21133;-70
2021/03/26 07:23:24;;;;;;;66.10;40.88;;;11.30;99.90;;;;;;1930594;72;21105;-68
2021/03/26 07:26:00;;;;;;;57.13;39.70;;;11.30;99.90;;;;;;1931123;72;21073;-66
2021/03/26 07:28:42;;;;;;;54.40;37.88;;;11.40;99.90;;;;;;1931604;72;21126;-67
2021/03/26 07:31:35;;;;;;;54.20;38.23;;;11.50;99.90;;;;;;1892063;74;21436;-66
2021/03/26 07:34:30;;;;;;;52.85;37.67;;;11.50;99.90;;;;;;1933579;72;21116;-66
2021/03/26 07:37:12;;;;;;;53.52;37.93;;;11.40;99.90;;;;;;1936997;72;21115;-66
2021/03/26 07:39:54;;;;;;;51.88;36.83;;;11.50;99.90;;;;;;1932409;72;21104;-66
2021/03/26 07:42:31;;;;;;;56.92;36.83;;;11.60;99.90;;;;;;1936588;72;21541;-68
2021/03/26 07:45:07;;;;;;;55.90;36.03;;;11.70;99.90;;;;;;1930576;72;21045;-67
2021/03/26 07:47:38;;;;;;;51.05;36.20;;;11.70;99.90;;;;;;1933955;72;21113;-67
2021/03/26 07:50:27;;;;;;;57.45;36.10;;;11.80;99.90;;;;;;1933230;72;21085;-67
2021/03/26 07:53:04;;;;;;;46.28;33.63;;;12.00;99.90;;;;;;1933960;73;21594;-67
2021/03/26 07:55:40;;;;;;;45.80;33.13;;;12.10;99.90;;;;;;1889608;75;21168;-67
2021/03/26 07:58:28;;;;;;;45.92;32.25;;;12.20;99.90;;;;;;1858643;75;22520;-68
2021/03/26 08:01:04;;;;;;;42.93;31.30;;;12.20;99.90;;;;;;1893884;74;21162;-70
2021/03/26 08:03:37;;;;;;;44.30;29.82;;;12.20;99.90;;;;;;1936838;72;21108;-70
2021/03/26 08:06:08;;;;;;;37.93;28.32;;;12.30;99.90;;;;;;1932568;72;21113;-72
2021/03/26 08:08:41;;;;;;;41.92;28.92;;;12.30;99.90;;;;;;1931326;72;21665;-72
2021/03/26 08:11:38;;;;;;;46.70;30.27;;;12.30;99.90;;;;;;1929751;72;21359;-73
2021/03/26 08:14:11;;;;;;;42.95;28.83;;;12.40;99.90;;;;;;1930894;72;21109;-72
2021/03/26 08:17:15;;;;;;;43.38;28.77;;;12.50;99.90;;;;;;1931312;72;21439;-73
2021/03/26 08:19:48;;;;;;;45.43;28.73;;;12.50;99.90;;;;;;1926926;72;21238;-72
2021/03/26 08:22:35;;;;;;;39.23;28.35;;;12.60;99.90;;;;;;1930527;72;21185;-73
2021/03/26 08:25:34;;;;;;;36.77;27.13;;;12.70;99.90;;;;;;1931146;72;21179;-72
2021/03/26 08:28:34;;;;;;;38.60;28.80;;;12.70;99.90;;;;;;1931663;72;21170;-72
2021/03/26 08:31:14;;;;;;;43.33;27.93;;;12.60;99.90;;;;;;1929802;72;21124;-73
2021/03/26 08:33:50;;;;;;;34.30;26.73;;;12.60;99.90;;;;;;1930479;72;21593;-71
2021/03/26 08:36:39;;;;;;;40.33;27.20;;;12.80;99.90;;;;;;1930456;72;21112;-73
2021/03/26 08:39:26;;;;;;;35.00;26.57;;;12.90;99.90;;;;;;1932597;72;21188;-74
2021/03/26 08:42:03;;;;;;;40.08;27.32;;;13.00;99.90;;;;;;1929830;72;21421;-73
2021/03/26 08:44:33;;;;;;;40.30;27.35;;;13.00;99.90;;;;;;1928273;72;21100;-73
2021/03/26 08:47:03;;;;;;;38.92;26.70;;;13.00;99.90;;;;;;1932377;72;21689;-73
2021/03/26 08:49:36;;;;;;;41.23;26.27;;;13.10;99.90;;;;;;1930891;72;21194;-72
2021/03/26 08:52:22;;;;;;;42.03;27.07;;;13.10;99.90;;;;;;1934736;72;21041;-71
2021/03/26 08:55:15;;;;;;;37.63;26.65;;;13.10;99.90;;;;;;1934699;72;21068;-72
2021/03/26 08:58:00;;;;;;;37.28;25.82;;;13.10;99.90;;;;;;1928862;72;21218;-72
2021/03/26 09:03:46;;;;;;;40.28;27.22;;;13.30;99.90;;;;;;1805054;78;21637;-72
2021/03/26 09:06:20;;;;;;;39.00;27.17;;;13.40;99.90;;;;;;1739502;80;21153;-71
2021/03/26 09:09:02;;;;;;;36.03;27.00;;;13.40;99.90;;;;;;1824780;77;21245;-72
2021/03/26 09:12:04;;;;;;;34.45;26.55;;;13.40;99.90;;;;;;1821803;76;21205;-71
2021/03/26 09:14:55;;;;;;;33.15;24.72;;;13.50;99.90;;;;;;1830300;76;21195;-71
2021/03/26 09:17:44;;;;;;;33.53;25.48;;;13.40;99.90;;;;;;1827234;77;22581;-71
2021/03/26 09:20:48;;;;;;;37.28;24.95;;;13.50;99.90;;;;;;1803993;78;21082;-72
2021/03/26 09:23:31;;;;;;;34.08;25.20;;;13.60;99.90;;;;;;1802485;78;21189;-74
2021/03/26 09:26:01;;;;;;;34.55;25.52;;;13.60;99.90;;;;;;1806016;78;21140;-72
2021/03/26 09:28:40;;;;;;;40.00;27.27;;;13.80;99.90;;;;;;1802893;78;21088;-72
2021/03/26 09:31:14;;;;;;;34.70;25.30;;;13.90;99.90;;;;;;1803107;78;21086;-73
2021/03/26 09:34:00;;;;;;;39.33;26.05;;;13.90;99.90;;;;;;1799588;78;21191;-73
2021/03/26 09:36:36;;;;;;;34.25;25.15;;;13.90;99.90;;;;;;1802328;78;21158;-73
2021/03/26 09:39:10;;;;;;;32.53;24.10;;;14.00;99.90;;;;;;1800583;78;22209;-72
2021/03/26 09:41:54;;;;;;;36.03;23.95;;;14.10;99.90;;;;;;1803600;78;21108;-72
2021/03/26 09:44:36;;;;;;;32.45;23.02;;;14.30;99.90;;;;;;1799767;77;21141;-72
2021/03/26 09:47:21;;;;;;;28.90;23.70;;;14.40;99.90;;;;;;1792582;78;21186;-71
2021/03/26 09:49:55;;;;;;;31.33;23.02;;;14.50;99.90;;;;;;1735674;81;21664;-74
2021/03/26 09:52:28;;;;;;;29.95;22.95;;;14.50;99.90;;;;;;1749754;79;21599;-70
2021/03/26 09:55:17;;;;;;;34.38;23.87;;;14.40;99.90;;;;;;1828827;77;21594;-70
2021/03/26 09:58:22;;;;;;;40.65;26.00;;;14.40;99.90;;;;;;1828290;77;21210;-71
2021/03/26 10:01:11;;;;;;;35.70;24.92;;;14.40;99.90;;;;;;1826964;77;21108;-74
2021/03/26 10:03:47;;;;;;;29.70;22.40;;;14.40;99.90;;;;;;1823667;77;22222;-71
2021/03/26 10:06:32;;;;;;;26.30;20.08;;;14.40;99.90;;;;;;1831968;77;21648;-74
2021/03/26 10:09:22;;;;;;;31.50;21.27;;;14.40;99.90;;;;;;1829291;76;21241;-71
2021/03/26 10:11:59;;;;;;;33.75;22.05;;;14.30;99.90;;;;;;1827200;76;21100;-71
2021/03/26 10:14:35;;;;;;;27.07;19.20;;;14.30;99.90;;;;;;1828812;77;21198;-74
2021/03/26 10:17:33;;;;;;;27.62;19.07;;;14.60;99.90;;;;;;1890614;70;21075;-74
2021/03/26 10:20:06;;;;;;;29.07;19.70;;;14.60;99.90;;;;;;1906533;73;21116;-74
2021/03/26 10:22:39;;;;;;;25.80;19.37;;;14.70;99.90;;;;;;1914107;73;21108;-73
2021/03/26 10:25:25;;;;;;;24.70;19.27;;;14.80;99.90;;;;;;1939920;70;21678;-73
2021/03/26 10:27:58;;;;;;;26.15;19.15;;;14.90;99.90;;;;;;1970421;70;21172;-74
2021/03/26 10:30:34;;;;;;;27.07;20.23;;;15.00;99.90;;;;;;1990367;70;22498;-74
2021/03/26 10:33:07;;;;;;;29.65;20.20;;;15.00;99.90;;;;;;1994336;70;21070;-75
2021/03/26 10:35:37;;;;;;;27.07;20.32;;;15.10;99.90;;;;;;1995411;70;21190;-73
2021/03/26 10:38:14;;;;;;;27.67;20.55;;;15.20;99.90;;;;;;1996892;70;21645;-73
2021/03/26 10:41:00;;;;;;;30.50;21.42;;;15.30;99.90;;;;;;1989565;70;21023;-75
2021/03/26 10:43:33;;;;;;;26.80;19.27;;;15.40;99.90;;;;;;1989628;70;21365;-73
2021/03/26 10:46:07;;;;;;;29.10;19.15;;;15.30;99.90;;;;;;1996017;70;21234;-72
2021/03/26 10:48:45;;;;;;;25.60;20.10;;;15.10;99.90;;;;;;1994894;70;21191;-71
2021/03/26 10:51:13;;;;;;;25.90;18.07;;;15.10;99.90;;;;;;1996536;70;21114;-71
2021/03/26 10:53:49;;;;;;;25.57;18.30;;;15.00;99.70;;;;;;1992124;70;21042;-70
2021/03/26 10:56:29;;;;;;;26.40;19.57;;;15.00;99.90;;;;;;1999492;70;21665;-70
2021/03/26 10:59:00;;;;;;;25.43;20.37;;;15.10;99.90;;;;;;1994411;70;21571;-75
2021/03/26 11:01:30;;;;;;;24.87;19.57;;;15.00;99.90;;;;;;1997709;70;21528;-75
2021/03/26 11:04:01;;;;;;;26.12;19.50;;;15.00;99.90;;;;;;1995599;70;21372;-75
2021/03/26 11:06:43;;;;;;;23.05;18.57;;;15.10;99.90;;;;;;1988894;70;21608;-76
2021/03/26 11:09:26;;;;;;;26.55;19.37;;;15.10;99.90;;;;;;1993229;70;21025;-72
2021/03/26 11:12:02;;;;;;;26.23;19.27;;;15.10;99.90;;;;;;1995142;70;21148;-70
2021/03/26 11:14:39;;;;;;;29.55;20.50;;;15.40;99.60;;;;;;1997712;70;21256;-73
2021/03/26 11:17:21;;;;;;;25.88;19.35;;;15.50;99.50;;;;;;1987117;70;21149;-72
2021/03/26 11:20:22;;;;;;;26.20;20.80;;;15.50;99.00;;;;;;1993344;70;21156;-70
2021/03/26 11:22:56;;;;;;;28.02;19.82;;;15.70;99.30;;;;;;1991494;70;21148;-68
2021/03/26 11:25:29;;;;;;;27.42;19.92;;;15.80;98.40;;;;;;1961302;70;21107;-69
2021/03/26 11:27:59;;;;;;;26.23;20.70;;;15.80;98.80;;;;;;1999697;70;21098;-70
2021/03/26 11:30:50;;;;;;;25.72;19.48;;;15.90;98.60;;;;;;1989688;70;21153;-69
2021/03/26 11:33:36;;;;;;;28.42;20.85;;;16.00;98.40;;;;;;1996661;70;21019;-68
2021/03/26 11:36:06;;;;;;;29.12;21.90;;;16.20;98.50;;;;;;1999393;70;21021;-69
2021/03/26 11:38:35;;;;;;;28.98;22.55;;;16.30;98.50;;;;;;1992787;70;21098;-70
2021/03/26 11:41:09;;;;;;;29.18;23.00;;;16.30;98.70;;;;;;1997901;70;21071;-70
2021/03/26 11:43:39;;;;;;;28.70;23.52;;;16.60;98.70;;;;;;1992556;70;21537;-69
2021/03/26 11:46:16;;;;;;;28.17;23.50;;;16.70;97.70;;;;;;1997231;70;21120;-70
2021/03/26 11:48:58;;;;;;;31.77;23.52;;;16.80;98.70;;;;;;1993328;70;21713;-68
2021/03/26 11:51:39;;;;;;;;;;;17.10;98.00;;;;;;2001856;70;21151;-72
2021/03/26 11:54:25;;;;;;;28.47;21.60;;;17.40;97.70;;;;;;1996982;70;20230;-71
2021/03/26 11:56:55;;;;;;;28.50;21.37;;;17.60;96.40;;;;;;1994294;70;21068;-70
2021/03/26 11:59:44;;;;;;;31.00;24.30;;;17.70;95.80;;;;;;1990792;70;21128;-70
2021/03/26 12:02:17;;;;;;;31.85;24.02;;;17.60;96.80;;;;;;1986899;70;21461;-69
2021/03/26 12:04:51;;;;;;;29.07;23.52;;;17.80;97.00;;;;;;1995175;70;21096;-71
2021/03/26 12:07:21;;;;;;;29.07;23.35;;;17.80;96.40;;;;;;1996916;70;21051;-73
2021/03/26 12:10:05;;;;;;;29.52;23.52;;;17.80;96.00;;;;;;1994932;70;21123;-71
2021/03/26 12:12:48;;;;;;;30.05;23.38;;;17.70;95.70;;;;;;1997127;70;21180;-71
2021/03/26 12:15:29;;;;;;;26.45;21.80;;;17.80;95.70;;;;;;1988252;70;21078;-77
2021/03/26 12:18:15;;;;;;;28.40;21.10;;;17.80;96.20;;;;;;1999339;70;21062;-73
2021/03/26 12:20:43;;;;;;;26.35;21.10;;;17.70;94.60;;;;;;1989376;70;21027;-76
2021/03/26 12:23:19;;;;;;;24.85;20.75;;;17.90;95.60;;;;;;1990529;70;21130;-73
2021/03/26 12:26:00;;;;;;;22.85;19.20;;;18.40;94.60;;;;;;1997675;70;21098;-72
2021/03/26 12:28:42;;;;;;;25.72;20.02;;;19.00;92.60;;;;;;1997580;70;21592;-72
2021/03/26 12:31:35;;;;;;;24.47;19.97;;;19.50;91.40;;;;;;1990607;71;21592;-73
2021/03/26 12:34:20;;;;;;;22.60;18.10;;;19.90;90.50;;;;;;1989579;71;21148;-72
2021/03/26 12:36:57;;;;;;;23.73;19.17;;;19.90;90.10;;;;;;1988318;70;21102;-72
2021/03/26 12:39:30;;;;;;;20.97;17.52;;;20.10;89.50;;;;;;1989593;70;21485;-73
2021/03/26 12:42:10;;;;;;;20.57;16.15;;;20.20;88.10;;;;;;1987424;70;21575;-72
2021/03/26 12:44:44;;;;;;;23.70;15.70;;;20.50;86.60;;;;;;1986605;70;21403;-72
2021/03/26 12:47:16;;;;;;;18.92;13.65;;;20.50;86.20;;;;;;1994271;70;21152;-72
2021/03/26 12:49:55;;;;;;;;;;;20.90;84.40;;;;;;1993227;70;21124;-73
2021/03/26 12:52:32;;;;;;;15.38;13.13;;;21.00;80.60;;;;;;1990431;70;20235;-69
2021/03/26 12:55:08;;;;;;;16.55;13.80;;;21.20;82.10;;;;;;1993909;70;21053;-71
2021/03/26 12:57:54;;;;;;;17.95;13.40;;;21.30;79.30;;;;;;1991423;70;21195;-74
2021/03/26 13:00:24;;;;;;;18.50;15.45;;;20.70;80.20;;;;;;1992965;70;21054;-74
2021/03/26 13:03:07;;;;;;;21.75;14.15;;;20.10;82.60;;;;;;1986671;70;21055;-74
2021/03/26 13:05:37;;;;;;;17.98;14.53;;;20.40;83.40;;;;;;1988020;70;21048;-74
2021/03/26 13:08:17;;;;;;;17.05;13.10;;;20.90;81.20;;;;;;1994367;70;21213;-75
2021/03/26 13:10:50;;;;;;;15.55;12.00;;;21.30;78.70;;;;;;1984363;70;21710;-74
2021/03/26 13:13:38;;;;;;;18.02;12.35;;;21.40;77.90;;;;;;1993579;70;21057;-74
2021/03/26 13:16:24;;;;;;;14.53;12.18;;;21.50;76.40;;;;;;1993759;70;21184;-74
2021/03/26 13:19:01;;;;;;;16.35;13.00;;;20.70;78.70;;;;;;1993971;70;21091;-74
2021/03/26 13:21:51;;;;;;;18.67;12.63;;;20.90;78.70;;;;;;1993067;70;21257;-71
2021/03/26 13:24:21;;;;;;;15.48;11.78;;;21.40;77.20;;;;;;1997083;70;21103;-71